Time;durP1;ratioP1;P1;durP2;ratioP2;P2;SDS_P1;SDS_P2;PMS_P1;PMS_P2;Temp;Humidity;BMP_temperature;BMP_pressure;BME280_temperature;BME280_humidity;BME280_pressure;Samples;Min_cycle;Max_cycle;Signal;HPM_P1;HPM_P2
2021/11/15 00:00:38;;;;;;;103.38;51.13;;;;;;;5.50;77.43;98122.02;1653838;86;27447;-87
2021/11/15 00:03:07;;;;;;;103.40;49.87;;;;;;;5.49;77.46;98123.02;1653782;86;25863;-87
2021/11/15 00:05:33;;;;;;;96.67;48.63;;;;;;;5.49;77.51;98131.05;1653768;86;25767;-87
2021/11/15 00:08:00;;;;;;;102.97;50.85;;;;;;;5.52;77.56;98131.58;1653732;86;25868;-87
2021/11/15 00:10:27;;;;;;;93.30;48.20;;;;;;;5.54;77.50;98138.11;1653713;86;25709;-87
2021/11/15 00:12:53;;;;;;;92.85;49.50;;;;;;;5.53;77.50;98136.44;1653908;86;27689;-87
2021/11/15 00:15:21;;;;;;;100.67;49.95;;;;;;;5.52;77.48;98139.61;1662079;85;25926;-87
2021/11/15 00:17:48;;;;;;;101.67;48.95;;;;;;;5.53;77.52;98144.47;1658880;86;26421;-87
2021/11/15 00:20:17;;;;;;;96.02;50.38;;;;;;;5.53;77.54;98145.80;1654133;86;26577;-87
2021/11/15 00:22:44;;;;;;;100.05;50.75;;;;;;;5.54;77.56;98156.86;1695324;84;26169;-86
2021/11/15 00:25:12;;;;;;;94.45;49.05;;;;;;;5.54;77.62;98147.48;1664631;86;28179;-86
2021/11/15 00:27:39;;;;;;;99.85;48.73;;;;;;;5.50;77.65;98150.98;1695310;84;25518;-87
2021/11/15 00:30:08;;;;;;;110.37;52.23;;;;;;;5.48;77.66;98151.64;1664685;86;25312;-87
2021/11/15 00:32:35;;;;;;;118.90;56.23;;;;;;;5.50;77.70;98150.14;1695429;84;26289;-87
2021/11/15 00:35:02;;;;;;;113.90;56.65;;;;;;;5.51;77.77;98147.30;1664633;86;25822;-87
2021/11/15 00:37:28;;;;;;;110.20;55.33;;;;;;;5.53;77.79;98146.65;1695327;84;27442;-87
2021/11/15 00:39:55;;;;;;;110.35;56.00;;;;;;;5.51;77.77;98145.12;1695160;84;25762;-87
2021/11/15 00:42:22;;;;;;;116.42;57.45;;;;;;;5.50;77.79;98140.27;1695329;84;25905;-86
2021/11/15 00:44:49;;;;;;;110.25;54.70;;;;;;;5.50;77.79;98143.44;1695673;84;25745;-86
2021/11/15 00:47:15;;;;;;;112.17;56.13;;;;;;;5.51;77.79;98150.48;1695383;84;25742;-86
2021/11/15 00:49:42;;;;;;;108.52;55.90;;;;;;;5.49;77.85;98145.28;1664533;86;27384;-87
2021/11/15 00:52:09;;;;;;;104.55;51.28;;;;;;;5.53;77.85;98145.80;1695176;84;25810;-87
2021/11/15 00:54:35;;;;;;;97.47;47.58;;;;;;;5.54;77.84;98142.13;1664597;86;25779;-87
2021/11/15 00:57:03;;;;;;;88.75;45.88;;;;;;;5.53;77.83;98148.48;1684479;84;26476;-87
2021/11/15 00:59:32;;;;;;;95.95;45.12;;;;;;;5.55;77.82;98146.48;1680683;84;26108;-87
2021/11/15 01:02:01;;;;;;;100.10;46.88;;;;;;;5.56;77.80;98141.44;1695289;84;27474;-87
2021/11/15 01:04:28;;;;;;;99.37;45.75;;;;;;;5.57;77.84;98149.31;1664463;86;25691;-88
2021/11/15 01:06:56;;;;;;;100.42;45.30;;;;;;;5.57;77.76;98151.16;1695355;84;26532;-87
2021/11/15 01:09:24;;;;;;;95.50;43.60;;;;;;;5.58;77.73;98155.52;1664575;86;25767;-87
2021/11/15 01:11:53;;;;;;;101.58;45.98;;;;;;;5.57;77.74;98156.02;1695355;84;25740;-87
2021/11/15 01:14:21;;;;;;;96.42;44.10;;;;;;;5.58;77.72;98159.53;1662308;86;27390;-87
2021/11/15 01:16:48;;;;;;;94.83;43.28;;;;;;;5.58;77.70;98159.53;1642693;86;25790;-87
2021/11/15 01:19:15;;;;;;;95.87;43.87;;;;;;;5.57;77.73;98155.17;1637566;87;25822;-87
2021/11/15 01:21:43;;;;;;;91.35;43.02;;;;;;;5.58;77.70;98159.53;1625259;87;25802;-87
2021/11/15 01:24:10;;;;;;;93.15;42.93;;;;;;;5.56;77.67;98162.87;1653813;86;25751;-87
2021/11/15 01:26:38;;;;;;;94.77;43.52;;;;;;;5.56;77.69;98162.37;1653895;86;27449;-87
2021/11/15 01:29:06;;;;;;;92.80;44.30;;;;;;;5.57;77.70;98165.39;1622632;87;25890;-87
2021/11/15 01:31:33;;;;;;;89.75;40.45;;;;;;;5.57;77.71;98167.23;1612768;87;25787;-87
2021/11/15 01:34:01;;;;;;;89.32;40.80;;;;;;;5.56;77.68;98163.70;1641468;87;25838;-87
2021/11/15 01:36:29;;;;;;;86.08;40.15;;;;;;;5.56;77.67;98169.56;1647943;86;25963;-87
2021/11/15 01:38:55;;;;;;;83.97;38.25;;;;;;;5.56;77.66;98169.56;1641319;86;28355;-87
2021/11/15 01:41:23;;;;;;;88.92;40.48;;;;;;;5.54;77.63;98175.11;1653658;86;25912;-87
2021/11/15 01:43:49;;;;;;;87.62;41.40;;;;;;;5.53;77.64;98176.60;1653842;86;25755;-86
2021/11/15 01:46:16;;;;;;;87.75;40.20;;;;;;;5.53;77.65;98183.30;1653751;86;25802;-87
2021/11/15 01:48:43;;;;;;;80.40;37.55;;;;;;;5.53;77.65;98186.81;1650737;86;25788;-88
2021/11/15 01:51:09;;;;;;;78.75;37.35;;;;;;;5.54;77.60;98191.67;1624694;86;27455;-87
2021/11/15 01:53:36;;;;;;;73.95;36.15;;;;;;;5.51;77.60;98187.47;1621491;86;26265;-87
2021/11/15 01:56:03;;;;;;;72.95;35.17;;;;;;;5.52;77.57;98191.83;1621609;86;25845;-87
2021/11/15 01:58:29;;;;;;;74.05;36.73;;;;;;;5.53;77.55;98191.33;1621532;86;25831;-87
2021/11/15 02:00:59;;;;;;;78.65;37.38;;;;;;;5.53;77.54;98192.67;1621762;86;25772;-87
2021/11/15 02:03:29;;;;;;;73.92;34.40;;;;;;;5.54;77.54;98198.38;1621638;86;27413;-87
2021/11/15 02:05:57;;;;;;;79.92;37.42;;;;;;;5.54;77.47;98196.53;1621641;86;25805;-87
2021/11/15 02:08:24;;;;;;;66.12;33.00;;;;;;;5.52;77.48;98189.65;1621684;86;26668;-87
2021/11/15 02:10:51;;;;;;;70.52;35.10;;;;;;;5.49;77.50;98186.78;1621689;86;26310;-88
2021/11/15 02:13:20;;;;;;;64.58;31.90;;;;;;;5.49;77.50;98182.77;1621326;86;25890;-88
2021/11/15 02:15:49;;;;;;;55.50;28.52;;;;;;;5.51;77.48;98187.97;1632626;86;27398;-88
2021/11/15 02:18:16;;;;;;;51.33;27.75;;;;;;;5.52;77.39;98186.97;1638610;86;26054;-87
2021/11/15 02:20:53;;;;;;;47.08;23.98;;;;;;;5.50;77.27;98192.98;1638750;86;26413;-88
2021/11/15 02:23:23;;;;;;;49.23;24.25;;;;;;;5.51;77.23;98187.97;1668491;85;26502;-88
2021/11/15 02:25:52;;;;;;;46.10;23.65;;;;;;;5.53;77.18;98191.33;1638952;87;25730;-88
2021/11/15 02:28:26;;;;;;;48.17;23.52;;;;;;;5.53;77.15;98194.02;1668680;85;27391;-88
2021/11/15 02:30:53;;;;;;;48.83;24.43;;;;;;;5.53;77.03;98198.87;1622933;87;25981;-88
2021/11/15 02:33:20;;;;;;;44.30;23.92;;;;;;;5.53;77.04;98196.69;1668455;85;25799;-88
2021/11/15 02:35:47;;;;;;;47.15;23.77;;;;;;;5.53;76.97;98195.35;1638735;87;25817;-88
2021/11/15 02:38:14;;;;;;;47.62;24.87;;;;;;;5.50;76.91;98191.14;1668529;85;25820;-87
2021/11/15 02:40:42;;;;;;;53.05;26.27;;;;;;;5.51;76.90;98194.66;1668505;85;27401;-87
2021/11/15 02:43:09;;;;;;;47.88;23.83;;;;;;;5.50;76.84;98193.83;1638680;86;25794;-87
2021/11/15 02:45:35;;;;;;;49.80;24.55;;;;;;;5.50;76.82;98190.30;1668375;85;25802;-87
2021/11/15 02:48:03;;;;;;;52.38;25.88;;;;;;;5.50;76.76;98203.70;1638872;87;25831;-88
2021/11/15 02:50:31;;;;;;;48.30;24.52;;;;;;;5.49;76.80;98208.70;1668525;85;25772;-87
2021/11/15 02:53:05;;;;;;;46.63;24.90;;;;;;;5.48;76.75;98209.20;1638733;87;28287;-86
2021/11/15 02:55:33;;;;;;;43.80;22.42;;;;;;;5.47;76.71;98210.70;1668503;85;25842;-87
2021/11/15 02:58:04;;;;;;;48.65;24.00;;;;;;;5.47;76.71;98214.72;1638840;87;25834;-86
2021/11/15 03:00:39;;;;;;;49.77;25.35;;;;;;;5.45;76.64;98213.53;1668632;85;26346;-86
2021/11/15 03:03:08;;;;;;;53.52;25.77;;;;;;;5.42;76.61;98212.53;1638593;87;25924;-87
2021/11/15 03:05:39;;;;;;;51.33;23.75;;;;;;;5.42;76.65;98219.23;1668692;85;27469;-86
2021/11/15 03:08:09;;;;;;;49.05;24.40;;;;;;;5.41;76.63;98218.39;1638641;85;25825;-87
2021/11/15 03:10:38;;;;;;;41.00;22.37;;;;;;;5.40;76.66;98220.73;1668438;85;25751;-86
2021/11/15 03:13:07;;;;;;;46.90;26.00;;;;;;;5.41;76.59;98222.41;1638512;87;25819;-86
2021/11/15 03:15:38;;;;;;;63.13;30.52;;;;;;;5.42;76.63;98229.94;1662280;85;25782;-86
2021/11/15 03:18:15;;;;;;;49.80;26.35;;;;;;;5.43;76.59;98227.08;1653073;86;27543;-86
2021/11/15 03:20:50;;;;;;;43.98;23.85;;;;;;;5.42;76.58;98218.73;1620912;88;25744;-86
2021/11/15 03:23:21;;;;;;;44.25;22.70;;;;;;;5.41;76.55;98217.05;1613395;88;25261;-86
2021/11/15 03:25:49;;;;;;;44.45;21.95;;;;;;;5.40;76.50;98219.39;1612115;88;26326;-87
2021/11/15 03:28:20;;;;;;;45.60;23.38;;;;;;;5.37;76.50;98222.38;1611957;88;25751;-86
2021/11/15 03:30:53;;;;;;;42.27;22.10;;;;;;;5.37;76.51;98222.38;1612155;88;27695;-86
2021/11/15 03:33:21;;;;;;;44.70;22.65;;;;;;;5.37;76.52;98218.86;1611878;88;25799;-87
2021/11/15 03:35:48;;;;;;;45.80;23.67;;;;;;;5.36;76.48;98224.70;1611861;87;26064;-86
2021/11/15 03:38:15;;;;;;;50.70;24.10;;;;;;;5.36;76.45;98228.72;1611882;88;25861;-86
2021/11/15 03:40:42;;;;;;;48.42;23.27;;;;;;;5.36;76.43;98230.56;1612106;88;25738;-86
2021/11/15 03:43:10;;;;;;;48.95;24.63;;;;;;;5.36;76.43;98234.08;1612124;88;27469;-86
2021/11/15 03:45:38;;;;;;;46.68;24.37;;;;;;;5.35;76.44;98233.73;1611959;88;26052;-85
2021/11/15 03:48:07;;;;;;;40.88;22.50;;;;;;;5.34;76.47;98234.73;1612019;88;25766;-86
2021/11/15 03:50:35;;;;;;;42.73;21.68;;;;;;;5.35;76.48;98240.42;1611989;88;25706;-86
2021/11/15 03:53:05;;;;;;;38.63;21.50;;;;;;;5.34;76.41;98234.73;1612015;87;25809;-86
2021/11/15 03:55:32;;;;;;;43.00;20.57;;;;;;;5.32;76.31;98239.89;1611975;87;27631;-86
2021/11/15 03:57:58;;;;;;;42.70;22.20;;;;;;;5.29;76.36;98238.40;1611896;88;25768;-86
2021/11/15 04:00:29;;;;;;;43.78;22.55;;;;;;;5.29;76.40;98237.06;1614281;87;26389;-86
2021/11/15 04:03:02;;;;;;;40.23;21.80;;;;;;;5.29;76.36;98235.72;1616812;87;25733;-87
2021/11/15 04:05:34;;;;;;;43.13;23.00;;;;;;;5.30;76.38;98233.39;1607730;89;25882;-86
2021/11/15 04:08:03;;;;;;;43.33;22.70;;;;;;;5.29;76.35;98233.05;1607798;88;27405;-87
2021/11/15 04:10:41;;;;;;;43.90;22.58;;;;;;;5.29;76.35;98225.02;1607590;89;25843;-87
2021/11/15 04:13:13;;;;;;;38.10;20.50;;;;;;;5.30;76.32;98225.36;1606991;88;25353;-87
2021/11/15 04:15:41;;;;;;;36.38;20.40;;;;;;;5.29;76.32;98227.69;1607159;88;33178;-87
2021/11/15 04:18:10;;;;;;;39.60;20.85;;;;;;;5.30;76.38;98225.86;1607573;88;25718;-88
2021/11/15 04:20:37;;;;;;;40.60;20.82;;;;;;;5.28;76.36;98220.66;1607753;88;27471;-87
2021/11/15 04:23:04;;;;;;;39.13;21.23;;;;;;;5.28;76.32;98222.00;1602613;87;25733;-86
2021/11/15 04:25:31;;;;;;;41.15;21.10;;;;;;;5.29;76.35;98219.66;1616480;87;25748;-86
2021/11/15 04:27:58;;;;;;;40.75;19.17;;;;;;;5.25;76.28;98216.95;1630992;87;26916;-86
2021/11/15 04:30:30;;;;;;;34.48;18.23;;;;;;;5.26;76.23;98219.13;1638606;87;25820;-87
2021/11/15 04:32:53;;;;;;;33.70;18.98;;;;;;;5.25;76.22;98219.63;1630677;87;27418;-87
2021/11/15 04:35:20;;;;;;;32.42;17.98;;;;;;;5.26;76.16;98217.29;1638161;87;26560;-87
2021/11/15 04:37:47;;;;;;;33.80;17.67;;;;;;;5.27;76.05;98213.62;1624844;87;25792;-87
2021/11/15 04:40:14;;;;;;;33.83;18.27;;;;;;;5.27;76.04;98219.47;1639611;87;26316;-87
2021/11/15 04:42:41;;;;;;;30.35;15.72;;;;;;;5.27;75.99;98220.81;1626636;87;25858;-87
2021/11/15 04:45:09;;;;;;;31.02;17.25;;;;;;;5.28;75.96;98223.33;1653689;86;27372;-86
2021/11/15 04:47:35;;;;;;;31.33;16.77;;;;;;;5.28;75.90;98222.00;1634669;86;25976;-86
2021/11/15 04:50:04;;;;;;;29.10;16.95;;;;;;;5.30;75.87;98224.02;1643808;86;25728;-87
2021/11/15 04:52:31;;;;;;;26.85;16.12;;;;;;;5.29;75.80;98222.34;1616657;86;26591;-87
2021/11/15 04:54:58;;;;;;;29.57;15.32;;;;;;;5.27;75.76;98218.97;1653655;86;25754;-87
2021/11/15 04:57:25;;;;;;;29.32;15.90;;;;;;;5.25;75.74;98220.97;1643603;86;27430;-87
2021/11/15 04:59:52;;;;;;;29.23;16.25;;;;;;;5.26;75.73;98213.28;1613330;88;25806;-87
2021/11/15 05:02:18;;;;;;;31.02;17.15;;;;;;;5.27;75.75;98216.30;1612072;88;25707;-86
2021/11/15 05:04:45;;;;;;;33.95;18.30;;;;;;;5.28;75.83;98215.30;1611954;88;25764;-85
2021/11/15 05:07:12;;;;;;;31.25;17.77;;;;;;;5.31;75.83;98221.66;1607842;88;25744;-85
2021/11/15 05:09:39;;;;;;;30.43;17.67;;;;;;;5.32;75.83;98226.52;1623180;87;27388;-86
2021/11/15 05:12:07;;;;;;;31.52;17.23;;;;;;;5.31;75.83;98226.20;1619062;87;25667;-86
2021/11/15 05:14:33;;;;;;;32.17;17.87;;;;;;;5.32;75.85;98218.48;1626094;87;25700;-85
2021/11/15 05:17:00;;;;;;;30.27;17.67;;;;;;;5.34;75.87;98223.18;1655041;86;25780;-86
2021/11/15 05:19:26;;;;;;;28.85;17.05;;;;;;;5.34;75.88;98228.04;1628575;86;25486;-86
2021/11/15 05:21:53;;;;;;;29.07;17.55;;;;;;;5.37;75.86;98226.39;1635692;87;27444;-86
2021/11/15 05:24:20;;;;;;;29.77;17.35;;;;;;;5.39;75.89;98232.43;1642107;86;25756;-88
2021/11/15 05:26:47;;;;;;;29.50;17.27;;;;;;;5.39;75.86;98238.28;1645100;86;25779;-85
2021/11/15 05:29:14;;;;;;;33.05;18.75;;;;;;;5.39;75.83;98231.59;1626635;88;26417;-85
2021/11/15 05:31:41;;;;;;;27.75;17.40;;;;;;;5.41;75.79;98226.42;1629094;87;25862;-86
2021/11/15 05:34:08;;;;;;;29.98;17.23;;;;;;;5.40;75.61;98227.42;1638375;86;28323;-85
2021/11/15 05:36:35;;;;;;;33.42;17.75;;;;;;;5.39;75.64;98227.58;1656669;86;25931;-86
2021/11/15 05:39:03;;;;;;;27.85;16.90;;;;;;;5.37;75.63;98220.19;1653279;86;25966;-86
2021/11/15 05:41:29;;;;;;;28.92;17.30;;;;;;;5.37;75.64;98228.23;1640675;86;25848;-86
2021/11/15 05:43:56;;;;;;;32.65;17.95;;;;;;;5.35;75.72;98226.20;1647905;85;25771;-86
2021/11/15 05:46:23;;;;;;;32.30;18.10;;;;;;;5.35;75.77;98231.55;1656748;85;27388;-86
2021/11/15 05:48:49;;;;;;;31.73;18.48;;;;;;;5.34;75.82;98233.39;1656664;86;25739;-86
2021/11/15 05:51:16;;;;;;;30.82;18.32;;;;;;;5.35;75.87;98231.06;1656710;85;25740;-86
2021/11/15 05:53:46;;;;;;;33.88;18.23;;;;;;;5.35;75.91;98231.06;1646688;86;26516;-86
2021/11/15 05:56:11;;;;;;;34.45;18.73;;;;;;;5.33;75.97;98226.36;1644813;86;26300;-86
2021/11/15 05:58:37;;;;;;;31.77;18.37;;;;;;;5.33;76.06;98226.85;1636809;86;27386;-85
2021/11/15 06:01:04;;;;;;;28.92;17.40;;;;;;;5.33;75.98;98227.70;1630058;86;25462;-86
2021/11/15 06:03:31;;;;;;;35.30;18.75;;;;;;;5.32;75.99;98227.34;1626651;86;26317;-85
2021/11/15 06:05:58;;;;;;;32.98;18.15;;;;;;;5.30;75.98;98224.02;1627963;86;25885;-85
2021/11/15 06:08:24;;;;;;;38.33;18.87;;;;;;;5.30;76.05;98232.55;1627352;86;26114;-86
2021/11/15 06:10:53;;;;;;;34.23;20.35;;;;;;;5.30;76.11;98237.41;1628389;86;27382;-86
2021/11/15 06:13:20;;;;;;;34.27;19.73;;;;;;;5.31;76.12;98236.91;1626679;86;25971;-86
2021/11/15 06:15:50;;;;;;;35.90;20.37;;;;;;;5.32;76.12;98244.75;1624408;86;25879;-85
2021/11/15 06:18:17;;;;;;;37.90;20.60;;;;;;;5.33;76.07;98242.42;1582088;88;25832;-86
2021/11/15 06:20:44;;;;;;;38.98;21.12;;;;;;;5.34;76.06;98245.94;1611928;88;25938;-86
2021/11/15 06:23:11;;;;;;;36.48;22.30;;;;;;;5.35;76.05;98244.44;1611908;88;27592;-86
2021/11/15 06:25:37;;;;;;;43.10;22.87;;;;;;;5.37;76.08;98244.29;1611935;87;25919;-86
2021/11/15 06:28:04;;;;;;;40.70;21.73;;;;;;;5.38;76.13;98244.63;1609088;87;25919;-86
2021/11/15 06:30:31;;;;;;;44.63;23.20;;;;;;;5.39;76.11;98246.31;1631139;87;26470;-86
2021/11/15 06:32:57;;;;;;;41.60;23.50;;;;;;;5.40;76.11;98246.16;1618742;86;25835;-86
2021/11/15 06:35:27;;;;;;;38.83;22.32;;;;;;;5.41;76.08;98253.20;1618348;86;27370;-86
2021/11/15 06:37:52;;;;;;;42.50;26.55;;;;;;;5.42;76.10;98252.20;1611691;88;25811;-86
2021/11/15 06:40:19;;;;;;;43.78;26.97;;;;;;;5.43;76.08;98253.85;1623617;87;25887;-85
2021/11/15 06:42:47;;;;;;;44.18;27.80;;;;;;;5.47;75.98;98252.20;1612064;88;26061;-86
2021/11/15 06:45:15;;;;;;;47.73;29.37;;;;;;;5.48;75.94;98261.42;1612060;88;25744;-86
2021/11/15 06:47:42;;;;;;;42.27;25.88;;;;;;;5.51;75.90;98256.25;1612033;88;27576;-86
2021/11/15 06:50:13;;;;;;;42.33;25.05;;;;;;;5.54;75.92;98258.63;1612101;87;25829;-86
2021/11/15 06:52:40;;;;;;;41.90;25.27;;;;;;;5.56;75.92;98260.62;1621278;87;25746;-86
2021/11/15 06:55:08;;;;;;;43.33;24.98;;;;;;;5.55;75.91;98258.47;1612532;88;26422;-86
2021/11/15 06:57:36;;;;;;;41.10;24.90;;;;;;;5.55;75.84;98264.33;1620038;87;25877;-86
2021/11/15 07:00:07;;;;;;;41.40;23.15;;;;;;;5.56;75.92;98265.98;1611773;87;27408;-85
2021/11/15 07:02:33;;;;;;;43.92;26.30;;;;;;;5.58;75.93;98255.95;1628090;87;26478;-85
2021/11/15 07:05:00;;;;;;;46.25;25.12;;;;;;;5.63;75.91;98263.02;1629652;87;25824;-86
2021/11/15 07:07:27;;;;;;;43.23;24.67;;;;;;;5.65;75.82;98262.37;1636619;87;26563;-86
2021/11/15 07:09:53;;;;;;;44.23;24.43;;;;;;;5.71;75.76;98264.39;1627467;86;25688;-86
2021/11/15 07:12:20;;;;;;;44.98;24.18;;;;;;;5.74;75.70;98262.73;1631931;87;28100;-86
2021/11/15 07:14:46;;;;;;;39.18;21.75;;;;;;;5.76;75.71;98264.77;1630657;87;25785;-86
2021/11/15 07:17:13;;;;;;;38.48;22.13;;;;;;;5.79;75.70;98261.77;1633167;86;25900;-86
2021/11/15 07:19:40;;;;;;;42.20;24.07;;;;;;;5.82;75.57;98259.25;1638697;87;26615;-86
2021/11/15 07:22:06;;;;;;;40.70;23.30;;;;;;;5.87;75.59;98267.16;1638716;87;25874;-86
2021/11/15 07:24:33;;;;;;;42.65;23.67;;;;;;;5.90;75.54;98264.20;1638498;87;27598;-86
2021/11/15 07:26:59;;;;;;;43.60;23.87;;;;;;;5.92;75.42;98272.89;1639396;87;25815;-85
2021/11/15 07:29:26;;;;;;;40.05;23.18;;;;;;;5.95;75.44;98261.85;1631734;87;25783;-86
2021/11/15 07:31:53;;;;;;;44.48;24.07;;;;;;;6.00;75.42;98262.72;1618816;87;26466;-85
2021/11/15 07:34:19;;;;;;;37.17;22.42;;;;;;;6.04;75.46;98260.88;1632812;87;25747;-85
2021/11/15 07:36:46;;;;;;;39.80;22.55;;;;;;;6.09;75.35;98261.24;1634865;87;28120;-85
2021/11/15 07:39:12;;;;;;;40.35;22.85;;;;;;;6.11;75.20;98256.56;1638695;87;25718;-85
2021/11/15 07:41:39;;;;;;;68.20;40.67;;;;;;;6.17;75.21;98255.05;1619770;87;25910;-84
2021/11/15 07:44:05;;;;;;;62.53;34.50;;;;;;;6.21;75.15;98256.42;1638809;87;25738;-85
2021/11/15 07:46:32;;;;;;;45.55;24.02;;;;;;;6.26;75.03;98259.96;1634243;87;25760;-84
2021/11/15 07:48:59;;;;;;;35.85;22.85;;;;;;;6.30;74.96;98261.30;1603551;87;27394;-85
2021/11/15 07:51:25;;;;;;;35.73;21.27;;;;;;;6.31;74.84;98257.11;1638584;87;25325;-85
2021/11/15 07:53:52;;;;;;;37.55;21.55;;;;;;;6.36;74.76;98257.47;1638718;87;25888;-85
2021/11/15 07:56:18;;;;;;;37.05;21.75;;;;;;;6.41;74.74;98258.30;1637343;87;25792;-86
2021/11/15 07:58:45;;;;;;;33.28;20.15;;;;;;;6.47;74.66;98259.00;1616877;87;25751;-85
2021/11/15 08:01:11;;;;;;;33.85;20.37;;;;;;;6.48;74.44;98254.81;1611417;88;27467;-85
2021/11/15 08:03:41;;;;;;;32.83;21.37;;;;;;;6.49;74.43;98262.36;1611408;88;26306;-86
2021/11/15 08:06:09;;;;;;;33.92;19.07;;;;;;;6.51;74.41;98260.36;1611175;87;25525;-86
2021/11/15 08:08:34;;;;;;;28.00;17.17;;;;;;;6.53;74.32;98262.34;1611355;88;26376;-85
2021/11/15 08:11:05;;;;;;;29.98;18.85;;;;;;;6.54;74.17;98263.19;1611560;88;25807;-86
2021/11/15 08:13:32;;;;;;;32.80;19.55;;;;;;;6.53;74.12;98261.00;1610675;88;27413;-85
2021/11/15 08:15:59;;;;;;;35.15;20.70;;;;;;;6.54;74.05;98265.88;1625619;87;25841;-85
2021/11/15 08:18:25;;;;;;;36.05;19.70;;;;;;;6.56;74.11;98266.05;1596695;87;25808;-85
2021/11/15 08:20:52;;;;;;;29.12;19.27;;;;;;;6.60;74.06;98266.57;1607409;89;25907;-85
2021/11/15 08:23:20;;;;;;;32.98;18.62;;;;;;;6.66;73.98;98269.41;1607601;88;25791;-85
2021/11/15 08:26:28;;;;;;;27.85;16.82;;;;;;;6.69;73.84;98267.75;1607574;88;27444;-85
2021/11/15 08:29:08;;;;;;;27.77;16.95;;;;;;;6.72;73.70;98267.92;1607672;88;25748;-85
2021/11/15 08:31:36;;;;;;;30.30;18.40;;;;;;;6.74;73.73;98266.77;1607737;88;25816;-85
2021/11/15 08:34:04;;;;;;;30.48;18.20;;;;;;;6.78;73.75;98263.22;1607723;87;26573;-86
2021/11/15 08:36:31;;;;;;;29.02;18.67;;;;;;;6.80;73.62;98267.42;1607668;88;26624;-86
2021/11/15 08:39:01;;;;;;;33.23;21.55;;;;;;;6.83;73.57;98263.57;1607363;88;28294;-85
2021/11/15 08:41:32;;;;;;;32.98;19.80;;;;;;;6.85;73.58;98269.62;1607588;87;25759;-86
2021/11/15 08:44:01;;;;;;;29.60;18.20;;;;;;;6.90;73.53;98265.07;1617320;87;25870;-85
2021/11/15 08:46:30;;;;;;;27.62;17.65;;;;;;;6.93;73.41;98271.45;1639634;87;25779;-85
2021/11/15 08:48:59;;;;;;;30.30;19.15;;;;;;;6.96;73.37;98261.73;1653856;86;25829;-85
2021/11/15 08:51:26;;;;;;;29.87;18.55;;;;;;;6.95;73.29;98260.89;1653720;86;27374;-86
2021/11/15 08:53:56;;;;;;;34.45;19.12;;;;;;;6.92;73.32;98261.22;1642716;87;26500;-85
2021/11/15 08:56:22;;;;;;;34.55;21.45;;;;;;;6.88;73.32;98260.40;1641520;87;25274;-85
2021/11/15 08:58:49;;;;;;;34.73;22.02;;;;;;;6.92;73.48;98265.75;1634761;86;26225;-85
2021/11/15 09:01:17;;;;;;;38.80;22.62;;;;;;;6.96;73.56;98261.73;1621546;88;25730;-85
2021/11/15 09:03:46;;;;;;;33.53;20.10;;;;;;;6.94;73.40;98262.39;1582445;88;28225;-85
2021/11/15 09:06:14;;;;;;;34.70;20.88;;;;;;;6.92;73.48;98261.22;1608950;87;25899;-85
2021/11/15 09:08:42;;;;;;;34.10;20.70;;;;;;;6.99;73.42;98263.59;1606680;88;25825;-85
2021/11/15 09:11:12;;;;;;;31.65;19.55;;;;;;;7.01;73.38;98263.39;1613423;88;25920;-85
2021/11/15 09:13:41;;;;;;;38.08;21.70;;;;;;;7.07;73.50;98264.08;1612112;88;25557;-85
2021/11/15 09:16:09;;;;;;;31.87;20.17;;;;;;;7.14;73.49;98270.44;1611823;88;27544;-85
2021/11/15 09:18:36;;;;;;;35.30;19.92;;;;;;;7.15;73.35;98269.43;1611765;88;25779;-85
2021/11/15 09:21:10;;;;;;;37.03;20.32;;;;;;;7.17;73.32;98268.77;1612221;88;25800;-85
2021/11/15 09:23:43;;;;;;;32.42;20.45;;;;;;;7.20;73.34;98269.78;1612238;88;25867;-85
2021/11/15 09:26:12;;;;;;;33.67;20.12;;;;;;;7.25;73.37;98267.41;1612211;88;25789;-86
2021/11/15 09:28:40;;;;;;;28.35;18.05;;;;;;;7.29;73.35;98264.73;1612133;88;27411;-85
2021/11/15 09:31:08;;;;;;;30.30;18.10;;;;;;;7.32;73.27;98263.55;1611971;88;25743;-86
2021/11/15 09:33:36;;;;;;;27.73;17.52;;;;;;;7.33;73.11;98258.02;1612042;88;26427;-85
2021/11/15 09:36:03;;;;;;;30.40;18.65;;;;;;;7.35;73.10;98253.82;1612030;88;25762;-86
2021/11/15 09:38:30;;;;;;;29.07;18.52;;;;;;;7.38;73.03;98246.23;1612140;88;25790;-86
2021/11/15 09:41:02;;;;;;;26.00;16.42;;;;;;;7.44;73.01;98250.10;1611859;88;27474;-86
2021/11/15 09:43:35;;;;;;;26.12;18.00;;;;;;;7.49;72.94;98250.41;1612164;88;25720;-86
2021/11/15 09:46:12;;;;;;;31.73;18.48;;;;;;;7.50;72.78;98250.24;1612108;88;25711;-86
2021/11/15 09:48:43;;;;;;;29.37;18.62;;;;;;;7.48;72.72;98249.61;1612021;88;26600;-86
2021/11/15 09:51:10;;;;;;;29.40;18.77;;;;;;;7.49;72.78;98241.84;1612150;88;25806;-85
2021/11/15 09:53:38;;;;;;;33.08;19.12;;;;;;;7.53;72.75;98249.91;1612021;87;27434;-86
2021/11/15 09:56:09;;;;;;;28.15;18.87;;;;;;;7.57;72.68;98247.73;1612062;88;25915;-86
2021/11/15 09:58:36;;;;;;;26.10;17.30;;;;;;;7.59;72.74;98247.89;1612016;88;25761;-85
2021/11/15 10:01:05;;;;;;;30.95;18.48;;;;;;;7.63;72.70;98247.52;1612098;88;25712;-85
2021/11/15 10:03:32;;;;;;;30.08;18.42;;;;;;;7.64;72.51;98243.83;1612231;87;25786;-87
2021/11/15 10:05:59;;;;;;;27.35;18.15;;;;;;;7.63;72.42;98236.78;1612182;88;27507;-86
2021/11/15 10:08:25;;;;;;;25.00;17.55;;;;;;;7.64;72.42;98235.77;1611959;88;25890;-85
2021/11/15 10:10:56;;;;;;;32.13;19.45;;;;;;;7.67;72.38;98242.15;1612060;88;25807;-86
2021/11/15 10:13:28;;;;;;;29.37;19.02;;;;;;;7.70;72.39;98244.50;1612071;87;25859;-88
2021/11/15 10:16:06;;;;;;;29.42;19.05;;;;;;;7.73;72.49;98244.16;1612233;87;26088;-86
2021/11/15 10:18:59;;;;;;;33.35;19.40;;;;;;;7.77;72.33;98241.44;1613516;87;27418;-86
2021/11/15 10:21:34;;;;;;;35.20;20.43;;;;;;;7.74;72.17;98239.09;1614681;87;25317;-86
2021/11/15 10:24:09;;;;;;;50.28;30.25;;;;;;;7.70;72.13;98233.25;1614694;88;26032;-84
2021/11/15 10:26:46;;;;;;;53.48;30.37;;;;;;;7.73;72.23;98240.13;1614769;88;26450;-85
2021/11/15 10:29:21;;;;;;;41.23;25.40;;;;;;;7.74;72.32;98239.09;1614785;88;25793;-85
2021/11/15 10:31:55;;;;;;;35.13;22.10;;;;;;;7.76;72.41;98236.57;1614692;87;27444;-87
2021/11/15 10:34:42;;;;;;;32.58;19.98;;;;;;;7.65;72.07;98236.11;1614779;88;25368;-86
2021/11/15 10:37:20;;;;;;;30.50;19.92;;;;;;;7.51;72.07;98240.34;1616915;88;25800;-85
2021/11/15 10:39:57;;;;;;;33.00;20.95;;;;;;;7.41;72.34;98240.53;1614783;88;25777;-85
2021/11/15 10:42:37;;;;;;;33.05;20.57;;;;;;;7.46;72.58;98243.55;1614671;88;25799;-86
2021/11/15 10:45:17;;;;;;;38.48;21.07;;;;;;;7.52;72.54;98240.67;1614678;87;27439;-86
2021/11/15 10:47:54;;;;;;;35.55;22.48;;;;;;;7.50;72.44;98244.03;1614577;88;26527;-86
2021/11/15 10:50:34;;;;;;;40.63;22.27;;;;;;;7.51;72.46;98250.58;1614723;88;26208;-86
2021/11/15 10:53:09;;;;;;;36.15;22.42;;;;;;;7.54;72.41;98251.59;1611929;88;26298;-87
2021/11/15 10:55:48;;;;;;;38.73;23.50;;;;;;;7.54;72.24;98251.59;1614798;88;25824;-86
2021/11/15 10:58:23;;;;;;;38.23;23.10;;;;;;;7.53;72.30;98247.22;1612148;87;28148;-86
2021/11/15 11:01:02;;;;;;;36.90;22.77;;;;;;;7.55;72.32;98239.83;1611876;87;25800;-86
2021/11/15 11:03:26;;;;;;;41.65;24.85;;;;;;;7.57;72.27;98240.50;1613163;87;25835;-86
2021/11/15 11:06:01;;;;;;;39.98;24.52;;;;;;;7.59;72.26;98245.20;1614683;88;26510;-85
2021/11/15 11:08:32;;;;;;;38.98;24.45;;;;;;;7.57;72.18;98241.84;1593112;88;25842;-86
2021/11/15 11:11:10;;;;;;;38.65;24.55;;;;;;;7.56;72.21;98241.52;1613068;88;27484;-86
2021/11/15 11:13:53;;;;;;;38.70;23.10;;;;;;;7.55;72.22;98243.02;1614678;88;25832;-85
2021/11/15 11:16:43;;;;;;;36.15;22.30;;;;;;;7.55;72.29;98239.83;1614857;88;25557;-86
2021/11/15 11:19:34;;;;;;;38.60;22.20;;;;;;;7.56;72.23;98242.86;1612705;87;25780;-86
2021/11/15 11:25:06;;;;;;;43.17;25.75;;;;;;;7.62;72.33;98238.63;1612047;88;27457;-86
2021/11/15 11:27:28;;;;;;;39.80;23.38;;;;;;;7.66;72.35;98237.78;1610733;87;25827;-86
2021/11/15 11:29:56;;;;;;;38.10;24.00;;;;;;;7.66;72.07;98237.78;1612003;87;25863;-86
2021/11/15 11:32:26;;;;;;;39.85;24.65;;;;;;;7.61;71.95;98235.60;1612070;88;25876;-86
2021/11/15 11:34:57;;;;;;;40.17;23.50;;;;;;;7.59;71.96;98232.28;1612092;88;25846;-86